Time;durP1;ratioP1;P1;durP2;ratioP2;P2;SDS_P1;SDS_P2;PMS_P1;PMS_P2;Temp;Humidity;BMP_temperature;BMP_pressure;BME280_temperature;BME280_humidity;BME280_pressure;Samples;Min_cycle;Max_cycle;Signal;HPM_P1;HPM_P2
2023/11/22 00:00:08;;;;;;;0.10;0.10;;;4.30;99.90;;;;;;6161809;23;20037;-92
2023/11/22 00:02:34;;;;;;;0.10;0.10;;;;;;;;;;6113863;23;20013;-92
2023/11/22 00:05:00;;;;;;;0.10;0.10;;;;;;;;;;6161930;23;19998;-91
2023/11/22 00:07:29;;;;;;;0.10;0.10;;;;;;;;;;6162836;23;20002;-92
2023/11/22 00:09:55;;;;;;;0.00;0.00;;;;;;;;;;6162861;23;19998;-92
2023/11/22 00:12:21;;;;;;;0.10;0.10;;;;;;;;;;6163981;23;20013;-91
2023/11/22 00:14:47;;;;;;;0.10;0.10;;;;;;;;;;6162876;23;19998;-91
2023/11/22 00:17:13;;;;;;;0.10;0.10;;;;;;;;;;6162420;23;20005;-91
2023/11/22 00:19:40;;;;;;;0.10;0.10;;;;;;;;;;6164577;23;20003;-92
2023/11/22 00:22:13;;;;;;;0.10;0.10;;;;;;;;;;6163861;23;20093;-90
2023/11/22 00:24:39;;;;;;;0.10;0.10;;;;;;;;;;6163433;23;20033;-90
2023/11/22 00:27:05;;;;;;;0.10;0.10;;;;;;;;;;6164811;23;20034;-91
2023/11/22 00:29:31;;;;;;;0.10;0.10;;;;;;;;;;6162476;23;20013;-91
2023/11/22 00:31:57;;;;;;;0.10;0.10;;;;;;;;;;6162725;23;20498;-92
2023/11/22 00:34:23;;;;;;;0.10;0.10;;;;;;;;;;6164037;23;20068;-92
2023/11/22 00:36:49;;;;;;;0.10;0.10;;;;;;;;;;6162908;23;20041;-91
2023/11/22 00:39:16;;;;;;;0.00;0.00;;;;;;;;;;6164290;23;20084;-92
2023/11/22 00:41:42;;;;;;;0.10;0.10;;;;;;;;;;6165602;23;20033;-92
2023/11/22 00:44:08;;;;;;;0.10;0.10;;;;;;;;;;6165928;23;20006;-91
2023/11/22 00:46:34;;;;;;;0.10;0.10;;;;;;;;;;6166633;23;20014;-90
2023/11/22 00:49:00;;;;;;;0.15;0.15;;;;;;;;;;6164273;23;19998;-91
2023/11/22 00:51:26;;;;;;;0.10;0.10;;;;;;;;;;6166457;23;20410;-91
2023/11/22 00:53:54;;;;;;;0.10;0.10;;;;;;;;;;6165704;23;20076;-91
2023/11/22 00:56:20;;;;;;;0.10;0.10;;;;;;;;;;6167046;23;20102;-91
2023/11/22 00:58:49;;;;;;;0.10;0.10;;;;;;;;;;6166934;23;20010;-91
2023/11/22 01:01:15;;;;;;;0.10;0.10;;;;;;;;;;6167508;23;20006;-91
2023/11/22 01:03:41;;;;;;;0.10;0.10;;;3.20;99.90;;;;;;6169146;23;20021;-92
2023/11/22 01:06:06;;;;;;;0.00;0.00;;;3.10;99.90;;;;;;6119629;23;20006;-90
2023/11/22 01:08:32;;;;;;;0.10;0.10;;;3.00;99.90;;;;;;6116099;23;20012;-89
2023/11/22 01:10:59;;;;;;;0.10;0.10;;;;;;;;;;6117755;23;20022;-91
2023/11/22 01:13:25;;;;;;;0.10;0.10;;;;;;;;;;6168473;23;20447;-92
2023/11/22 01:15:51;;;;;;;0.10;0.10;;;;;;;;;;6167928;23;20013;-91
2023/11/22 01:18:17;;;;;;;0.05;0.05;;;2.90;99.90;;;;;;6168495;23;20009;-92
2023/11/22 01:20:44;;;;;;;0.10;0.10;;;;;;;;;;6120131;23;20033;-92
2023/11/22 01:23:11;;;;;;;0.10;0.10;;;;;;;;;;6166842;23;20016;-90
2023/11/22 01:25:37;;;;;;;0.10;0.10;;;;;;;;;;6166185;23;19998;-90
2023/11/22 01:28:03;;;;;;;0.10;0.10;;;;;;;;;;6169089;23;20070;-89
2023/11/22 01:30:29;;;;;;;0.10;0.10;;;;;;;;;;6169349;23;19997;-92
2023/11/22 01:32:55;;;;;;;0.10;0.10;;;;;;;;;;6167111;23;20025;-91
2023/11/22 01:35:21;;;;;;;0.10;0.10;;;2.80;99.90;;;;;;6167587;23;20010;-91
2023/11/22 01:37:47;;;;;;;0.10;0.10;;;;;;;;;;6118948;23;20006;-91
2023/11/22 01:40:13;;;;;;;0.10;0.10;;;;;;;;;;6167934;23;20061;-91
2023/11/22 01:42:40;;;;;;;0.10;0.10;;;;;;;;;;6167545;23;20017;-91
2023/11/22 01:45:07;;;;;;;0.10;0.10;;;2.70;99.90;;;;;;6166740;23;20032;-91
2023/11/22 01:47:33;;;;;;;0.10;0.10;;;;;;;;;;6119814;23;20009;-92
2023/11/22 01:49:59;;;;;;;0.10;0.10;;;;;;;;;;6170057;23;20057;-93
2023/11/22 01:52:25;;;;;;;0.10;0.10;;;;;;;;;;6169057;23;20009;-92
2023/11/22 01:54:51;;;;;;;0.10;0.10;;;;;;;;;;6168676;23;20002;-92
2023/11/22 01:57:17;;;;;;;0.10;0.10;;;;;;;;;;6168682;23;20031;-92
2023/11/22 01:59:45;;;;;;;0.05;0.05;;;2.50;99.90;;;;;;6167859;23;20010;-92
2023/11/22 02:02:11;;;;;;;0.10;0.10;;;;;;;;;;6115801;23;20005;-92
2023/11/22 02:04:36;;;;;;;0.00;0.00;;;;;;;;;;6169231;23;20053;-92
2023/11/22 02:07:03;;;;;;;0.10;0.10;;;;;;;;;;6168640;23;20006;-91
2023/11/22 02:09:29;;;;;;;0.10;0.10;;;;;;;;;;6169291;23;20002;-92
2023/11/22 02:11:54;;;;;;;0.10;0.10;;;;;;;;;;6167165;23;20066;-91
2023/11/22 02:14:20;;;;;;;0.03;0.03;;;;;;;;;;6165700;23;20402;-92
2023/11/22 02:16:46;;;;;;;0.10;0.10;;;;;;;;;;6167623;23;19998;-92
2023/11/22 02:19:16;;;;;;;0.00;0.00;;;2.20;99.90;;;;;;6170034;23;20065;-92
2023/11/22 02:21:42;;;;;;;0.10;0.10;;;;;;;;;;6121356;23;20053;-92
2023/11/22 02:24:08;;;;;;;0.00;0.00;;;;;;;;;;6170655;23;20006;-93
2023/11/22 02:26:34;;;;;;;0.03;0.03;;;;;;;;;;6171478;23;20033;-94
2023/11/22 02:29:00;;;;;;;0.10;0.10;;;;;;;;;;6171784;23;20002;-92
2023/11/22 02:31:27;;;;;;;0.10;0.10;;;;;;;;;;6168681;23;20038;-93
2023/11/22 02:33:55;;;;;;;0.10;0.10;;;;;;;;;;6173574;23;20016;-91
2023/11/22 02:36:21;;;;;;;0.10;0.10;;;;;;;;;;6173888;23;20100;-91
2023/11/22 02:38:47;;;;;;;0.10;0.10;;;;;;;;;;6175487;23;20002;-91
2023/11/22 02:41:13;;;;;;;0.10;0.10;;;;;;;;;;6171882;23;20006;-91
2023/11/22 02:43:41;;;;;;;0.10;0.10;;;;;;;;;;6164280;23;20010;-92
2023/11/22 02:46:07;;;;;;;0.00;0.00;;;;;;;;;;6162448;23;20075;-90
2023/11/22 02:51:18;;;;;;;0.10;0.10;;;;;;;;;;6142828;23;20061;-93
2023/11/22 04:04:21;;;;;;;0.10;0.10;;;;;;;;;;6173746;23;20021;-93
2023/11/22 04:06:47;;;;;;;0.10;0.10;;;;;;;;;;6172485;23;20056;-94
2023/11/22 04:09:13;;;;;;;0.10;0.10;;;;;;;;;;6171488;23;20029;-94
2023/11/22 04:11:40;;;;;;;0.10;0.10;;;;;;;;;;6173497;23;20001;-92
2023/11/22 04:14:06;;;;;;;0.10;0.10;;;;;;;;;;6172887;23;20446;-91
2023/11/22 04:16:32;;;;;;;0.10;0.10;;;;;;;;;;6170437;23;20029;-94
2023/11/22 04:18:59;;;;;;;0.10;0.10;;;;;;;;;;6172175;23;20001;-91
2023/11/22 04:21:25;;;;;;;0.10;0.10;;;;;;;;;;6171626;23;20006;-91
2023/11/22 04:23:51;;;;;;;0.10;0.10;;;;;;;;;;6170389;23;20009;-91
2023/11/22 04:26:20;;;;;;;0.10;0.10;;;;;;;;;;6146124;23;20459;-90
2023/11/22 04:28:46;;;;;;;0.00;0.00;;;;;;;;;;6170242;23;20001;-91
2023/11/22 04:31:15;;;;;;;0.08;0.08;;;;;;;;;;6169277;23;20001;-92
2023/11/22 04:33:46;;;;;;;0.10;0.10;;;1.50;99.90;;;;;;6168783;23;20461;-92
2023/11/22 04:36:12;;;;;;;0.10;0.10;;;;;;;;;;6168422;23;20006;-91
2023/11/22 04:38:38;;;;;;;0.08;0.08;;;;;;;;;;6169682;23;20005;-91
2023/11/22 04:41:07;;;;;;;0.10;0.10;;;1.60;99.90;;;;;;6169502;23;20037;-91
2023/11/22 04:43:33;;;;;;;0.10;0.10;;;;;;;;;;6169116;23;20005;-91
2023/11/22 04:45:59;;;;;;;0.10;0.10;;;;;;;;;;6169752;23;20009;-92
2023/11/22 04:48:25;;;;;;;0.00;0.00;;;;;;;;;;6168536;23;20029;-93
2023/11/22 04:50:51;;;;;;;0.10;0.10;;;;;;;;;;6169649;23;20006;-92
2023/11/22 04:53:19;;;;;;;0.00;0.00;;;1.60;99.90;;;;;;6170533;23;20006;-95
2023/11/22 04:55:45;;;;;;;0.03;0.03;;;;;;;;;;6170568;23;20012;-92
2023/11/22 04:58:35;;;;;;;0.00;0.00;;;1.50;99.90;;;;;;6165266;23;20033;-93
2023/11/22 05:01:02;;;;;;;;;;;1.30;99.90;;;;;;6170121;23;20005;-90
2023/11/22 05:03:29;;;;;;;0.10;0.10;;;;;;;;;;6170612;23;19939;-92
2023/11/22 05:05:55;;;;;;;0.10;0.10;;;;;;;;;;6169236;23;20005;-92
2023/11/22 05:08:20;;;;;;;0.10;0.10;;;;;;;;;;6168757;23;20005;-93
2023/11/22 05:10:46;;;;;;;0.10;0.10;;;;;;;;;;6170464;23;20084;-92
2023/11/22 05:15:49;;;;;;;0.10;0.10;;;;;;;;;;6190553;23;20025;-92
2023/11/22 07:44:26;;;;;;;0.10;0.10;;;1.00;99.90;;;;;;6172078;23;20025;-91
2023/11/22 07:46:53;;;;;;;0.10;0.10;;;;;;;;;;6196132;23;20442;-93
2023/11/22 07:49:21;;;;;;;0.10;0.10;;;1.10;99.90;;;;;;6170584;23;20040;-91
2023/11/22 07:51:47;;;;;;;0.10;0.10;;;;;;;;;;6170908;23;20013;-91
2023/11/22 07:54:15;;;;;;;0.10;0.10;;;;;;;;;;6171221;23;20009;-92
2023/11/22 07:56:43;;;;;;;0.10;0.10;;;1.20;99.90;;;;;;6171692;23;20001;-92
2023/11/22 07:59:10;;;;;;;0.00;0.00;;;;;;;;;;6172020;23;20002;-91
2023/11/22 08:01:36;;;;;;;0.10;0.10;;;;;;;;;;6171077;23;20008;-94
2023/11/22 08:04:02;;;;;;;0.10;0.10;;;;;;;;;;6171962;23;20013;-92
2023/11/22 08:06:29;;;;;;;0.10;0.10;;;;;;;;;;6171394;23;20002;-93
2023/11/22 08:08:55;;;;;;;0.00;0.00;;;;;;;;;;6171867;23;20002;-92
2023/11/22 08:11:21;;;;;;;0.10;0.10;;;;;;;;;;6171616;23;20066;-93
2023/11/22 09:46:23;;;;;;;0.10;0.10;;;3.80;99.90;;;;;;6193090;23;20025;-90
2023/11/22 09:48:51;;;;;;;0.10;0.10;;;;;;;;;;6214930;23;20032;-91
2023/11/22 09:51:26;;;;;;;0.10;0.10;;;3.80;99.90;;;;;;6162555;23;20005;-92
2023/11/22 09:53:56;;;;;;;0.10;0.10;;;;;;;;;;6214866;23;20034;-92
2023/11/22 09:56:23;;;;;;;0.00;0.00;;;4.00;99.90;;;;;;6165572;23;20245;-91
2023/11/22 09:58:54;;;;;;;0.10;0.10;;;4.10;99.90;;;;;;6214760;23;20442;-91
2023/11/22 10:01:21;;;;;;;0.10;0.10;;;4.20;99.90;;;;;;6213135;23;20202;-92
2023/11/22 10:03:48;;;;;;;0.10;0.10;;;;;;;;;;6214443;23;20016;-90
2023/11/22 10:06:15;;;;;;;0.10;0.10;;;;;;;;;;6164167;23;20016;-91
2023/11/22 10:08:41;;;;;;;0.10;0.10;;;;;;;;;;6165813;23;20005;-91
2023/11/22 10:11:07;;;;;;;0.10;0.10;;;;;;;;;;6163584;23;20005;-90
2023/11/22 10:13:34;;;;;;;0.10;0.10;;;4.20;99.90;;;;;;6164059;23;20191;-92
2023/11/22 10:16:10;;;;;;;0.10;0.10;;;4.30;99.90;;;;;;6210594;23;20063;-91
2023/11/22 10:18:43;;;;;;;0.10;0.10;;;4.30;99.90;;;;;;6215306;23;20009;-91
2023/11/22 10:21:25;;;;;;;0.10;0.10;;;4.40;99.90;;;;;;6221047;23;20013;-90
2023/11/22 10:23:56;;;;;;;0.10;0.10;;;4.40;99.90;;;;;;6229819;23;20012;-91
2023/11/22 10:26:27;;;;;;;0.10;0.10;;;4.60;99.90;;;;;;6229861;23;20007;-89
2023/11/22 10:28:53;;;;;;;0.10;0.10;;;4.70;99.90;;;;;;6227755;23;20001;-90
2023/11/22 10:31:23;;;;;;;0.10;0.10;;;4.70;99.90;;;;;;6226741;23;19992;-91
2023/11/22 10:33:49;;;;;;;0.10;0.10;;;;;;;;;;6226656;23;20009;-90
2023/11/22 13:06:32;;;;;;;0.10;0.10;;;;;;;;;;6213392;22;20017;-92
2023/11/22 13:08:59;;;;;;;0.10;0.10;;;;;;;;;;6212553;22;19997;-88
2023/11/22 13:11:25;;;;;;;0.10;0.10;;;;;;;;;;6187236;22;20062;-90
2023/11/22 13:13:51;;;;;;;0.10;0.10;;;;;;;;;;6203933;22;20001;-90
2023/11/22 13:16:18;;;;;;;0.10;0.10;;;;;;;;;;6211691;22;20028;-91
2023/11/22 13:18:44;;;;;;;0.10;0.10;;;;;;;;;;6211746;22;19991;-89
2023/11/22 13:21:10;;;;;;;0.10;0.10;;;6.20;99.90;;;;;;6212027;22;19997;-92
2023/11/22 13:23:37;;;;;;;0.10;0.10;;;5.90;99.90;;;;;;6212463;22;20012;-92
2023/11/22 13:26:05;;;;;;;0.10;0.10;;;;;;;;;;6212898;22;19986;-89
2023/11/22 13:28:32;;;;;;;0.10;0.10;;;;;;;;;;6212325;22;19997;-89
2023/11/22 13:30:59;;;;;;;0.10;0.10;;;;;;;;;;6212322;22;20013;-92
2023/11/22 13:33:25;;;;;;;0.10;0.10;;;;;;;;;;6212247;22;20008;-89
2023/11/22 13:35:51;;;;;;;0.10;0.10;;;;;;;;;;6212185;22;20061;-91
2023/11/22 13:38:19;;;;;;;0.10;0.10;;;5.90;99.90;;;;;;6212392;22;20047;-89
2023/11/22 13:40:46;;;;;;;0.10;0.10;;;;;;;;;;6209883;22;19997;-90
2023/11/22 14:40:13;;;;;;;0.10;0.10;;;;;;;;;;6180741;23;20057;-91
2023/11/22 14:42:46;;;;;;;0.10;0.10;;;5.10;99.90;;;;;;6181251;22;20145;-91
2023/11/22 14:45:12;;;;;;;0.10;0.10;;;;;;;;;;6179401;23;19998;-92
2023/11/22 14:47:39;;;;;;;0.10;0.10;;;;;;;;;;6179137;23;20223;-90
2023/11/22 14:50:07;;;;;;;0.10;0.10;;;5.30;99.90;;;;;;6178788;23;20013;-90
2023/11/22 14:52:33;;;;;;;0.00;0.00;;;;;;;;;;6179605;23;20044;-90
2023/11/22 14:55:00;;;;;;;0.10;0.10;;;;;;;;;;6179787;23;19997;-91
2023/11/22 14:57:28;;;;;;;0.10;0.10;;;;;;;;;;6180083;23;19998;-90
2023/11/22 14:59:54;;;;;;;0.10;0.10;;;;;;;;;;6179297;23;20001;-92
2023/11/22 15:02:20;;;;;;;0.10;0.10;;;;;;;;;;6177749;23;20017;-90
2023/11/22 15:04:47;;;;;;;0.10;0.10;;;;;;;;;;6180206;23;20028;-91
2023/11/22 15:07:14;;;;;;;0.10;0.10;;;5.00;99.90;;;;;;6180090;23;19998;-91
2023/11/22 15:09:41;;;;;;;0.10;0.10;;;;;;;;;;6181201;23;19989;-90
2023/11/22 15:12:07;;;;;;;0.10;0.10;;;;;;;;;;6180109;23;20020;-91
2023/11/22 15:14:33;;;;;;;0.10;0.10;;;4.90;99.90;;;;;;6180070;23;19989;-91
2023/11/22 15:17:04;;;;;;;0.00;0.00;;;;;;;;;;6180442;23;20040;-92
2023/11/22 15:19:31;;;;;;;0.10;0.10;;;;;;;;;;6180915;23;20041;-91
2023/11/22 15:21:58;;;;;;;0.00;0.00;;;;;;;;;;6180098;23;20052;-90
2023/11/22 18:46:13;;;;;;;0.10;0.10;;;;;;;;;;6209614;22;20005;-94
2023/11/22 18:48:39;;;;;;;0.00;0.00;;;;;;;;;;6183573;22;20001;-95
2023/11/22 18:51:05;;;;;;;0.10;0.10;;;;;;;;;;6184178;22;19993;-94
2023/11/22 18:53:32;;;;;;;0.10;0.10;;;;;;;;;;6196246;22;20036;-95
2023/11/22 18:55:58;;;;;;;0.10;0.10;;;;;;;;;;6208349;22;19989;-93
2023/11/22 18:58:24;;;;;;;0.10;0.10;;;;;;;;;;6207218;22;20013;-92
2023/11/22 19:00:50;;;;;;;0.08;0.08;;;;;;;;;;6208523;22;20032;-91
2023/11/22 19:03:16;;;;;;;0.10;0.10;;;4.60;99.90;;;;;;6205356;22;19993;-93
2023/11/22 19:05:43;;;;;;;0.10;0.10;;;;;;;;;;6206835;22;20031;-91
2023/11/22 19:08:09;;;;;;;0.10;0.10;;;;;;;;;;6207132;22;19993;-94
2023/11/22 19:10:35;;;;;;;0.10;0.10;;;;;;;;;;6207923;22;20013;-92
2023/11/22 19:13:01;;;;;;;0.10;0.10;;;;;;;;;;6208535;22;20004;-93
2023/11/22 19:15:27;;;;;;;0.10;0.10;;;;;;;;;;6207925;22;20017;-94
2023/11/22 19:17:53;;;;;;;0.10;0.10;;;;;;;;;;6207331;22;20005;-94
2023/11/22 19:20:19;;;;;;;0.10;0.10;;;;;;;;;;6208612;22;20009;-92
2023/11/22 19:22:45;;;;;;;0.10;0.10;;;;;;;;;;6207595;22;20000;-93
2023/11/22 19:25:12;;;;;;;0.10;0.10;;;;;;;;;;6208901;22;20005;-93
2023/11/22 19:27:38;;;;;;;0.10;0.10;;;4.60;99.90;;;;;;6206659;22;20024;-93
2023/11/22 19:30:13;;;;;;;0.10;0.10;;;4.60;99.90;;;;;;6204852;22;19993;-94
2023/11/22 19:32:50;;;;;;;0.10;0.10;;;4.70;99.90;;;;;;6204029;22;20019;-93
2023/11/22 19:35:19;;;;;;;0.10;0.10;;;4.80;99.90;;;;;;6207737;22;20020;-94
2023/11/22 19:37:57;;;;;;;0.10;0.10;;;4.70;99.90;;;;;;6205243;22;19989;-93
2023/11/22 19:40:33;;;;;;;0.10;0.10;;;4.60;99.90;;;;;;6206001;22;20005;-93
2023/11/22 19:43:04;;;;;;;0.10;0.10;;;4.60;99.90;;;;;;6232534;22;19997;-92
2023/11/22 19:45:30;;;;;;;0.10;0.10;;;;;;;;;;6207096;22;20001;-94
2023/11/22 19:47:56;;;;;;;0.10;0.10;;;;;;;;;;6207557;22;20580;-93
2023/11/22 19:50:23;;;;;;;0.10;0.10;;;;;;;;;;6206569;22;20061;-92
2023/11/22 19:52:49;;;;;;;0.10;0.10;;;;;;;;;;6206679;22;20354;-93
2023/11/22 19:55:15;;;;;;;0.10;0.10;;;;;;;;;;6207449;22;20039;-93
2023/11/22 19:57:42;;;;;;;0.10;0.10;;;;;;;;;;6207517;22;20013;-93
2023/11/22 20:00:13;;;;;;;0.10;0.10;;;4.60;99.90;;;;;;6208493;22;19997;-93
2023/11/22 20:02:39;;;;;;;0.10;0.10;;;;;;;;;;6207146;22;20076;-94
2023/11/22 20:05:07;;;;;;;0.10;0.10;;;4.60;99.90;;;;;;6207499;22;20017;-93
2023/11/22 20:07:34;;;;;;;0.10;0.10;;;4.60;99.90;;;;;;6207577;22;19993;-94
2023/11/22 20:10:12;;;;;;;0.10;0.10;;;4.70;99.90;;;;;;6206455;22;20020;-90
2023/11/22 20:12:41;;;;;;;0.10;0.10;;;;;;;;;;6206391;22;19989;-94
2023/11/22 22:19:24;;;;;;;0.10;0.10;;;;;;;;;;6180369;23;20017;-93
2023/11/22 22:21:50;;;;;;;0.10;0.10;;;;;;;;;;6180971;23;19994;-95
2023/11/22 22:24:16;;;;;;;0.10;0.10;;;;;;;;;;6202648;22;20036;-95
2023/11/22 22:26:42;;;;;;;0.10;0.10;;;5.60;99.90;;;;;;6180235;23;20053;-94
2023/11/22 22:29:08;;;;;;;0.10;0.10;;;;;;;;;;6179877;23;19993;-94
2023/11/22 22:44:30;;;;;;;0.10;0.10;;;;;;;;;;6181674;23;20017;-95
2023/11/22 22:46:56;;;;;;;0.10;0.10;;;;;;;;;;6182151;23;20000;-95
2023/11/22 22:49:22;;;;;;;0.05;0.05;;;;;;;;;;6182254;23;19993;-93
2023/11/22 22:51:48;;;;;;;0.10;0.10;;;;;;;;;;6182353;23;20013;-95
2023/11/22 22:54:14;;;;;;;0.05;0.05;;;;;;;;;;6182397;23;19993;-94
2023/11/22 22:56:41;;;;;;;0.10;0.10;;;;;;;;;;6181466;23;19994;-93
2023/11/22 22:59:07;;;;;;;0.10;0.10;;;;;;;;;;6181784;23;20002;-95
2023/11/22 23:01:33;;;;;;;0.10;0.10;;;;;;;;;;6180056;23;20002;-94
2023/11/22 23:04:00;;;;;;;0.10;0.10;;;;;;;;;;6182219;23;20004;-95
2023/11/22 23:06:26;;;;;;;0.10;0.10;;;;;;;;;;6181386;23;20005;-91
2023/11/22 23:08:53;;;;;;;0.10;0.10;;;;;;;;;;6181913;23;19998;-94
2023/11/22 23:11:23;;;;;;;0.10;0.10;;;5.90;99.90;;;;;;6181322;23;20021;-94
2023/11/22 23:13:49;;;;;;;;;;;5.80;99.90;;;;;;6182295;23;20004;-94
2023/11/22 23:16:15;;;;;;;0.00;0.00;;;;;;;;;;6181536;23;19888;-93
2023/11/22 23:18:44;;;;;;;0.10;0.10;;;;;;;;;;6181716;23;20070;-93
2023/11/22 23:21:11;;;;;;;0.00;0.00;;;;;;;;;;6181977;23;19993;-96
2023/11/22 23:23:37;;;;;;;0.10;0.10;;;;;;;;;;6181525;23;20008;-93
2023/11/22 23:26:04;;;;;;;0.10;0.10;;;6.00;99.90;;;;;;6153662;23;20013;-94
2023/11/22 23:28:30;;;;;;;0.00;0.00;;;;;;;;;;6180877;23;20041;-94
2023/11/22 23:31:06;;;;;;;0.10;0.10;;;;;;;;;;6180894;23;20017;-94
2023/11/22 23:33:33;;;;;;;0.10;0.10;;;;;;;;;;6180719;23;20052;-95
2023/11/22 23:36:04;;;;;;;0.10;0.10;;;;;;;;;;6181517;23;19993;-94
2023/11/22 23:38:33;;;;;;;0.10;0.10;;;;;;;;;;6180766;23;19985;-93
2023/11/22 23:40:59;;;;;;;0.10;0.10;;;;;;;;;;6182056;23;20017;-94
2023/11/22 23:43:30;;;;;;;0.10;0.10;;;;;;;;;;6181291;23;20017;-93
2023/11/22 23:45:57;;;;;;;0.10;0.10;;;;;;;;;;6182050;23;20008;-94
2023/11/22 23:48:23;;;;;;;0.10;0.10;;;;;;;;;;6180871;23;19993;-94
2023/11/22 23:50:49;;;;;;;0.10;0.10;;;;;;;;;;6179826;23;20005;-94
2023/11/22 23:53:16;;;;;;;0.00;0.00;;;;;;;;;;6181255;23;19996;-92
2023/11/22 23:55:42;;;;;;;0.10;0.10;;;;;;;;;;6181734;23;20021;-94
2023/11/22 23:58:10;;;;;;;0.10;0.10;;;6.00;99.90;;;;;;6181553;23;20010;-94
